createdAt,value
2018-02-18T00:01:04.600Z,1003.27
2018-02-18T00:02:14.384Z,1003.26
2018-02-18T00:03:24.450Z,1003.26
2018-02-18T00:04:34.568Z,1003.27
2018-02-18T00:05:44.395Z,1003.3
2018-02-18T00:06:54.189Z,1003.32
2018-02-18T00:08:03.984Z,1003.36
2018-02-18T00:09:15.051Z,1003.37
2018-02-18T00:10:24.856Z,1003.39
2018-02-18T00:11:34.384Z,1003.4
2018-02-18T00:12:44.439Z,1003.41
2018-02-18T00:13:54.501Z,1003.4
2018-02-18T00:15:04.559Z,1003.41
2018-02-18T00:16:14.092Z,1003.41
2018-02-18T00:17:24.154Z,1003.48
2018-02-18T00:18:34.225Z,1003.44
2018-02-18T00:19:44.282Z,1003.54
2018-02-18T00:20:54.080Z,1003.52
2018-02-18T00:22:04.150Z,1003.57
2018-02-18T00:23:14.017Z,1003.55
2018-02-18T00:24:23.806Z,1003.59
2018-02-18T00:25:33.348Z,1003.57
2018-02-18T00:26:43.145Z,1003.57
2018-02-18T00:27:52.942Z,1003.6
2018-02-18T00:29:02.745Z,1003.58
2018-02-18T00:30:12.544Z,1003.63
2018-02-18T00:31:22.069Z,1003.62
2018-02-18T00:32:31.611Z,1003.64
2018-02-18T00:33:41.406Z,1003.64
2018-02-18T00:34:51.494Z,1003.63
2018-02-18T00:36:01.532Z,1003.64
2018-02-18T00:37:11.330Z,1003.63
2018-02-18T00:38:20.844Z,1003.69
2018-02-18T00:39:30.951Z,1003.7
2018-02-18T00:40:41.054Z,1003.76
2018-02-18T00:41:51.133Z,1003.78
2018-02-18T00:43:01.209Z,1003.78
2018-02-18T00:44:11.312Z,1003.8
2018-02-18T00:45:21.430Z,1003.83
2018-02-18T00:46:30.961Z,1003.81
2018-02-18T00:47:41.007Z,1003.84
2018-02-18T00:48:51.123Z,1003.81
2018-02-18T00:50:01.244Z,1003.87
2018-02-18T00:51:11.311Z,1003.88
2018-02-18T00:52:21.100Z,1003.89
2018-02-18T00:53:31.480Z,1003.93
2018-02-18T00:54:43.552Z,1003.98
2018-02-18T00:55:53.614Z,1003.91
2018-02-18T00:57:03.419Z,1003.93
2018-02-18T00:58:13.472Z,1003.94
2018-02-18T00:59:23.096Z,1003.94
2018-02-18T01:00:32.900Z,1003.95
2018-02-18T01:01:43.012Z,1003.93
2018-02-18T01:02:53.068Z,1003.96
2018-02-18T01:04:02.876Z,1003.96
2018-02-18T01:05:12.944Z,1004
2018-02-18T01:06:22.520Z,1004
2018-02-18T01:07:32.568Z,1004
2018-02-18T01:08:42.368Z,1004.04
2018-02-18T01:09:52.165Z,1004.01
2018-02-18T01:11:02.228Z,1004.02
2018-02-18T01:12:12.019Z,1003.94
2018-02-18T01:13:21.823Z,1003.94
2018-02-18T01:14:31.952Z,1003.94
2018-02-18T01:15:41.474Z,1003.94
2018-02-18T01:16:51.274Z,1004.01
2018-02-18T01:18:01.078Z,1004.01
2018-02-18T01:19:11.234Z,1004.07
2018-02-18T01:20:21.295Z,1004.06
2018-02-18T01:21:31.350Z,1004.02
2018-02-18T01:22:41.213Z,1004.02
2018-02-18T01:23:51.006Z,1004.03
2018-02-18T01:25:02.755Z,1004.07
2018-02-18T01:26:12.551Z,1004.04
2018-02-18T01:27:22.617Z,1004.08
2018-02-18T01:28:32.723Z,1004.09
2018-02-18T01:29:42.536Z,1004.06
2018-02-18T01:30:52.728Z,1004.07
2018-02-18T01:32:02.260Z,1004.08
2018-02-18T01:33:12.058Z,1004.09
2018-02-18T01:34:22.114Z,1004.08
2018-02-18T01:35:32.200Z,1004.11
2018-02-18T01:36:42.275Z,1004.1
2018-02-18T01:37:52.074Z,1004.12
2018-02-18T01:39:01.896Z,1004.09
2018-02-18T01:40:11.960Z,1004.08
2018-02-18T01:41:22.031Z,1004.09
2018-02-18T01:42:32.076Z,1004.08
2018-02-18T01:43:41.871Z,1004.08
2018-02-18T01:44:51.658Z,1004.09
2018-02-18T01:46:00.928Z,1004.08
2018-02-18T01:47:10.208Z,1004.06
2018-02-18T01:48:20.273Z,1004.08
2018-02-18T01:49:30.323Z,1004.11
2018-02-18T01:50:40.116Z,1004.11
2018-02-18T01:51:49.649Z,1004.09
2018-02-18T01:52:59.734Z,1004.12
2018-02-18T01:54:09.551Z,1004.11
2018-02-18T01:55:19.394Z,1004.14
2018-02-18T01:56:29.440Z,1004.14
2018-02-18T01:57:39.011Z,1004.2
2018-02-18T01:58:48.815Z,1004.21
2018-02-18T01:59:58.631Z,1004.23
2018-02-18T02:01:08.438Z,1004.29
2018-02-18T02:02:18.549Z,1004.29
2018-02-18T02:03:28.596Z,1004.31
2018-02-18T02:04:38.681Z,1004.33
2018-02-18T02:05:48.745Z,1004.36
2018-02-18T02:06:58.301Z,1004.31
2018-02-18T02:08:08.377Z,1004.33
2018-02-18T02:09:18.182Z,1004.36
2018-02-18T02:10:28.242Z,1004.36
2018-02-18T02:11:38.013Z,1004.4
2018-02-18T02:12:48.040Z,1004.4
2018-02-18T02:13:57.840Z,1004.41
2018-02-18T02:15:07.652Z,1004.46
2018-02-18T02:16:17.440Z,1004.48
2018-02-18T02:17:27.238Z,1004.52
2018-02-18T02:18:37.307Z,1004.57
2018-02-18T02:19:47.094Z,1004.53
2018-02-18T02:20:56.664Z,1004.53
2018-02-18T02:22:06.462Z,1004.55
2018-02-18T02:23:16.271Z,1004.54
2018-02-18T02:24:26.070Z,1004.57
2018-02-18T02:25:36.129Z,1004.54
2018-02-18T02:26:45.707Z,1004.53
2018-02-18T02:27:55.772Z,1004.6
2018-02-18T02:29:05.834Z,1004.57
2018-02-18T02:30:15.892Z,1004.56
2018-02-18T02:31:25.702Z,1004.57
2018-02-18T02:32:35.550Z,1004.57
2018-02-18T02:33:45.615Z,1004.54
2018-02-18T02:34:55.427Z,1004.49
2018-02-18T02:36:05.223Z,1004.51
2018-02-18T02:37:15.015Z,1004.61
2018-02-18T02:38:25.055Z,1004.62
2018-02-18T02:39:34.845Z,1004.67
2018-02-18T02:40:44.624Z,1004.65
2018-02-18T02:41:54.694Z,1004.62
2018-02-18T02:43:04.476Z,1004.6
2018-02-18T02:44:14.289Z,1004.64
2018-02-18T02:45:24.353Z,1004.68
2018-02-18T02:46:34.143Z,1004.73
2018-02-18T02:47:44.230Z,1004.74
2018-02-18T02:48:54.019Z,1004.75
2018-02-18T02:50:03.555Z,1004.77
2018-02-18T02:51:13.371Z,1004.81
2018-02-18T02:52:23.466Z,1004.85
2018-02-18T02:53:33.545Z,1004.88
2018-02-18T02:54:43.632Z,1004.89
2018-02-18T02:55:53.417Z,1004.85
2018-02-18T02:57:02.684Z,1004.83
2018-02-18T02:58:12.479Z,1004.84
2018-02-18T02:59:22.536Z,1004.83
2018-02-18T03:00:32.622Z,1004.8
2018-02-18T03:01:42.683Z,1004.84
2018-02-18T03:02:52.731Z,1004.82
2018-02-18T03:04:02.548Z,1004.83
2018-02-18T03:36:21.757Z,1005.08
2018-02-18T03:37:31.811Z,1005.07
2018-02-18T03:38:41.859Z,1005.02
2018-02-18T03:39:51.644Z,1005.01
2018-02-18T03:41:01.698Z,1005.05
2018-02-18T03:42:11.744Z,1005.13
2018-02-18T03:43:21.802Z,1005.08
2018-02-18T03:44:31.327Z,1005.12
2018-02-18T03:45:41.440Z,1005.15
2018-02-18T03:46:51.493Z,1005.17
2018-02-18T03:48:01.022Z,1005.2
2018-02-18T03:49:11.077Z,1005.22
2018-02-18T03:50:20.864Z,1005.2
2018-02-18T03:51:30.657Z,1005.27
2018-02-18T03:52:40.459Z,1005.28
2018-02-18T03:53:49.991Z,1005.28
2018-02-18T03:55:00.051Z,1005.28
2018-02-18T03:56:10.090Z,1005.27
2018-02-18T03:57:19.880Z,1005.3
2018-02-18T03:58:29.934Z,1005.31
2018-02-18T03:59:39.730Z,1005.34
2018-02-18T04:00:49.769Z,1005.37
2018-02-18T04:01:59.584Z,1005.35
2018-02-18T04:03:09.642Z,1005.36
2018-02-18T04:04:19.727Z,1005.36
2018-02-18T04:05:29.469Z,1005.37
2018-02-18T04:06:39.522Z,1005.36
2018-02-18T04:07:49.309Z,1005.36
2018-02-18T04:09:00.610Z,1005.36
2018-02-18T04:10:09.882Z,1005.4
2018-02-18T04:11:19.932Z,1005.43
2018-02-18T04:12:29.734Z,1005.44
2018-02-18T04:13:39.521Z,1005.43
2018-02-18T04:14:49.603Z,1005.41
2018-02-18T04:15:59.669Z,1005.33
2018-02-18T04:17:09.789Z,1005.36
2018-02-18T04:18:19.848Z,1005.41
2018-02-18T04:19:29.918Z,1005.44
2018-02-18T04:20:39.709Z,1005.46
2018-02-18T04:21:49.245Z,1005.46
2018-02-18T04:22:59.303Z,1005.46
2018-02-18T04:24:09.099Z,1005.44
2018-02-18T04:25:18.902Z,1005.42
2018-02-18T04:26:28.683Z,1005.44
2018-02-18T04:27:38.761Z,1005.46
2018-02-18T04:28:48.294Z,1005.48
2018-02-18T04:29:58.099Z,1005.46
2018-02-18T04:31:07.928Z,1005.47
2018-02-18T04:32:17.723Z,1005.47
2018-02-18T04:33:27.511Z,1005.48
2018-02-18T04:34:37.306Z,1005.52
2018-02-18T04:35:47.106Z,1005.51
2018-02-18T04:36:56.892Z,1005.55
2018-02-18T04:38:06.959Z,1005.54
2018-02-18T04:39:17.023Z,1005.55
2018-02-18T04:40:26.811Z,1005.55
2018-02-18T04:41:36.858Z,1005.62
2018-02-18T04:42:46.384Z,1005.57
2018-02-18T04:43:56.185Z,1005.64
2018-02-18T04:45:05.984Z,1005.7
2018-02-18T04:46:15.769Z,1005.73
2018-02-18T04:47:25.842Z,1005.78
2018-02-18T04:48:35.632Z,1005.75
2018-02-18T04:49:45.425Z,1005.77
2018-02-18T04:50:55.228Z,1005.76
2018-02-18T04:52:05.073Z,1005.8
2018-02-18T04:53:15.580Z,1005.83
2018-02-18T04:54:25.630Z,1005.82
2018-02-18T04:55:35.684Z,1005.79
2018-02-18T04:56:45.747Z,1005.85
2018-02-18T04:57:55.807Z,1005.87
2018-02-18T04:59:05.611Z,1005.91
2018-02-18T05:00:15.417Z,1005.96
2018-02-18T05:01:24.682Z,1005.94
2018-02-18T05:02:34.734Z,1005.93
2018-02-18T05:03:44.536Z,1005.89
2018-02-18T05:04:54.318Z,1005.93
2018-02-18T05:06:04.370Z,1005.96
2018-02-18T05:07:14.423Z,1005.98
2018-02-18T05:08:24.463Z,1006
2018-02-18T05:09:34.300Z,1006
2018-02-18T05:10:44.356Z,1006
2018-02-18T05:11:54.146Z,1006
2018-02-18T05:13:04.211Z,1006.01
2018-02-18T05:14:13.998Z,1006.03
2018-02-18T05:15:24.053Z,1006.08
2018-02-18T05:16:34.097Z,1006.07
2018-02-18T05:17:44.264Z,1006.08
2018-02-18T05:18:53.806Z,1006.05
2018-02-18T05:20:03.843Z,1006.09
2018-02-18T05:21:13.886Z,1006.08
2018-02-18T05:22:23.950Z,1006.08
2018-02-18T05:23:33.486Z,1006.09
2018-02-18T05:24:43.537Z,1006.09
2018-02-18T05:25:53.324Z,1006.09
2018-02-18T05:27:03.368Z,1006.11
2018-02-18T05:28:13.160Z,1006.14
2018-02-18T05:29:23.216Z,1006.16
2018-02-18T05:30:33.283Z,1006.18
2018-02-18T05:31:43.352Z,1006.2
2018-02-18T05:32:53.401Z,1006.19
2018-02-18T05:34:03.451Z,1006.21
2018-02-18T05:35:12.972Z,1006.26
2018-02-18T05:36:23.017Z,1006.25
2018-02-18T05:37:32.274Z,1006.27
2018-02-18T05:38:42.122Z,1006.28
2018-02-18T05:39:52.174Z,1006.33
2018-02-18T05:41:01.943Z,1006.27
2018-02-18T05:42:11.751Z,1006.33
2018-02-18T05:43:21.540Z,1006.31
2018-02-18T05:44:31.078Z,1006.36
2018-02-18T05:45:40.875Z,1006.33
2018-02-18T05:46:50.673Z,1006.35
2018-02-18T05:48:00.727Z,1006.35
2018-02-18T05:49:10.519Z,1006.37
2018-02-18T05:50:20.558Z,1006.4
2018-02-18T05:51:30.334Z,1006.42
2018-02-18T05:52:39.863Z,1006.47
2018-02-18T05:53:49.651Z,1006.5
2018-02-18T05:54:59.705Z,1006.47
2018-02-18T05:56:09.772Z,1006.48
2018-02-18T05:57:19.838Z,1006.54
2018-02-18T05:58:29.642Z,1006.51
2018-02-18T05:59:39.480Z,1006.57
2018-02-18T06:00:49.010Z,1006.56
2018-02-18T06:01:58.539Z,1006.62
2018-02-18T06:03:08.324Z,1006.64
2018-02-18T06:04:18.389Z,1006.66
2018-02-18T06:05:27.926Z,1006.69
2018-02-18T06:06:37.976Z,1006.66
2018-02-18T06:07:48.033Z,1006.66
2018-02-18T06:08:58.093Z,1006.66
2018-02-18T06:10:07.896Z,1006.69
2018-02-18T06:11:17.694Z,1006.7
2018-02-18T06:12:27.482Z,1006.7
2018-02-18T06:13:36.741Z,1006.72
2018-02-18T06:14:46.546Z,1006.75
2018-02-18T06:15:56.609Z,1006.79
2018-02-18T06:17:06.660Z,1006.81
2018-02-18T06:18:16.448Z,1006.8
2018-02-18T06:19:26.556Z,1006.79
2018-02-18T06:20:36.349Z,1006.84
2018-02-18T06:21:46.130Z,1006.84
2018-02-18T06:22:57.134Z,1006.85
2018-02-18T06:24:07.296Z,1006.89
2018-02-18T06:25:16.820Z,1006.85
2018-02-18T06:26:26.610Z,1006.9
2018-02-18T06:27:36.673Z,1006.9
2018-02-18T06:28:46.744Z,1006.88
2018-02-18T06:29:56.564Z,1006.9
2018-02-18T06:31:06.672Z,1006.94
2018-02-18T06:32:16.760Z,1006.91
2018-02-18T06:33:26.815Z,1006.95
2018-02-18T06:34:36.090Z,1006.96
2018-02-18T06:35:45.889Z,1006.96
2018-02-18T06:36:55.946Z,1006.95
2018-02-18T06:38:05.736Z,1007.01
2018-02-18T06:39:15.334Z,1006.95
2018-02-18T06:40:25.378Z,1006.98
2018-02-18T06:41:35.177Z,1006.99
2018-02-18T06:42:44.980Z,1007.01
2018-02-18T06:43:55.109Z,1007.04
2018-02-18T06:45:04.977Z,1007.03
2018-02-18T06:46:15.050Z,1007.05
2018-02-18T06:47:24.841Z,1007.04
2018-02-18T06:48:34.936Z,1007.08
2018-02-18T06:49:44.723Z,1007.07
2018-02-18T06:50:54.790Z,1007.06
2018-02-18T06:52:04.857Z,1007.07
2018-02-18T06:53:14.914Z,1007.11
2018-02-18T06:54:24.436Z,1007.14
2018-02-18T06:55:34.508Z,1007.18
2018-02-18T06:56:44.562Z,1007.17
2018-02-18T06:57:54.102Z,1007.15
2018-02-18T06:59:04.174Z,1007.13
2018-02-18T07:00:14.248Z,1007.12
2018-02-18T07:01:24.032Z,1007.13
2018-02-18T07:02:34.102Z,1007.17
2018-02-18T07:03:44.172Z,1007.16
2018-02-18T07:04:53.978Z,1007.16
2018-02-18T07:06:03.759Z,1007.18
2018-02-18T07:07:14.103Z,1007.22
2018-02-18T07:08:23.881Z,1007.17
2018-02-18T07:09:33.400Z,1007.22
2018-02-18T07:10:43.464Z,1007.22
2018-02-18T07:11:53.523Z,1007.2
2018-02-18T07:13:02.797Z,1007.27
2018-02-18T07:14:12.343Z,1007.26
2018-02-18T07:15:22.408Z,1007.28
2018-02-18T07:16:32.486Z,1007.27
2018-02-18T07:17:42.558Z,1007.28
2018-02-18T07:18:52.344Z,1007.3
2018-02-18T07:20:02.433Z,1007.3
2018-02-18T07:21:12.487Z,1007.32
2018-02-18T07:22:22.540Z,1007.3
2018-02-18T07:23:32.645Z,1007.3
2018-02-18T07:24:44.134Z,1007.3
2018-02-18T07:25:56.134Z,1007.34
2018-02-18T07:27:06.191Z,1007.34
2018-02-18T07:28:16.258Z,1007.36
2018-02-18T07:29:25.856Z,1007.4
2018-02-18T07:30:35.718Z,1007.39
2018-02-18T07:31:45.855Z,1007.44
2018-02-18T07:32:55.650Z,1007.45
2018-02-18T07:34:05.456Z,1007.48
2018-02-18T07:35:14.993Z,1007.5
2018-02-18T07:36:24.525Z,1007.51
2018-02-18T07:37:34.065Z,1007.55
2018-02-18T07:38:43.869Z,1007.53
2018-02-18T07:39:53.410Z,1007.57
2018-02-18T07:41:03.486Z,1007.6
2018-02-18T07:42:13.539Z,1007.64
2018-02-18T07:43:23.076Z,1007.64
2018-02-18T07:44:33.152Z,1007.68
2018-02-18T07:45:43.224Z,1007.68
2018-02-18T07:46:53.036Z,1007.68
2018-02-18T07:48:03.102Z,1007.69
2018-02-18T07:49:13.204Z,1007.74
2018-02-18T07:50:22.751Z,1007.7
2018-02-18T07:51:32.556Z,1007.66
2018-02-18T07:52:42.627Z,1007.74
2018-02-18T07:53:52.739Z,1007.67
2018-02-18T07:55:02.538Z,1007.7
2018-02-18T07:56:12.700Z,1007.71
2018-02-18T07:57:22.227Z,1007.76
2018-02-18T07:58:32.282Z,1007.75
2018-02-18T07:59:42.075Z,1007.75
2018-02-18T08:00:51.630Z,1007.78
2018-02-18T08:02:01.179Z,1007.72
2018-02-18T08:03:10.966Z,1007.72
2018-02-18T08:04:20.810Z,1007.76
2018-02-18T08:05:30.873Z,1007.74
2018-02-18T08:06:40.420Z,1007.7
2018-02-18T08:07:50.503Z,1007.76
2018-02-18T08:09:00.588Z,1007.78
2018-02-18T08:10:10.726Z,1007.79
2018-02-18T08:11:20.545Z,1007.83
2018-02-18T08:12:30.439Z,1007.82
2018-02-18T08:13:40.602Z,1007.84
2018-02-18T08:14:50.407Z,1007.82
2018-02-18T08:16:00.205Z,1007.81
2018-02-18T08:17:09.752Z,1007.84
2018-02-18T08:18:19.562Z,1007.86
2018-02-18T08:19:29.370Z,1007.88
2018-02-18T08:20:38.910Z,1007.8
2018-02-18T08:21:48.704Z,1007.82
2018-02-18T08:22:58.492Z,1007.78
2018-02-18T08:24:08.303Z,1007.73
2018-02-18T08:25:18.379Z,1007.78
2018-02-18T08:26:28.195Z,1007.79
2018-02-18T08:27:38.252Z,1007.77
2018-02-18T08:28:48.105Z,1007.78
2018-02-18T08:29:58.176Z,1007.81
2018-02-18T08:31:08.266Z,1007.8
2018-02-18T08:32:18.323Z,1007.84
2018-02-18T08:33:28.431Z,1007.82
2018-02-18T08:34:38.232Z,1007.85
2018-02-18T08:35:47.848Z,1007.87
2018-02-18T08:36:57.906Z,1007.85
2018-02-18T08:38:07.696Z,1007.9
2018-02-18T08:39:17.830Z,1007.8
2018-02-18T08:40:27.414Z,1007.86
2018-02-18T08:41:37.493Z,1007.89
2018-02-18T08:42:47.569Z,1007.85
2018-02-18T08:43:57.622Z,1007.83
2018-02-18T08:45:07.434Z,1007.81
2018-02-18T08:46:17.512Z,1007.88
2018-02-18T08:47:27.576Z,1007.9
2018-02-18T08:48:37.413Z,1007.9
2018-02-18T08:49:47.482Z,1007.96
2018-02-18T08:50:57.288Z,1007.95
2018-02-18T08:52:07.088Z,1008.03
2018-02-18T08:53:17.154Z,1008.03
2018-02-18T08:54:26.708Z,1008.05
2018-02-18T08:55:36.762Z,1008.02
2018-02-18T08:56:46.933Z,1008
2018-02-18T08:57:56.759Z,1008.02
2018-02-18T08:59:06.589Z,1007.98
2018-02-18T09:00:16.648Z,1008.05
2018-02-18T09:01:26.715Z,1008.02
2018-02-18T09:02:37.488Z,1008.08
2018-02-18T09:03:47.584Z,1008.07
2018-02-18T09:04:57.391Z,1008.06
2018-02-18T09:06:07.451Z,1008.07
2018-02-18T09:07:17.510Z,1008.05
2018-02-18T09:08:27.332Z,1008.03
2018-02-18T09:09:36.863Z,1008.1
2018-02-18T09:10:46.661Z,1008.07
2018-02-18T09:11:56.473Z,1008.1
2018-02-18T09:13:06.359Z,1008.15
2018-02-18T09:14:16.434Z,1008.14
2018-02-18T09:15:26.539Z,1008.15
2018-02-18T09:16:36.717Z,1008.16
2018-02-18T09:17:45.744Z,1008.2
2018-02-18T09:18:55.540Z,1008.19
2018-02-18T09:20:05.352Z,1008.21
2018-02-18T09:21:14.899Z,1008.22
2018-02-18T09:22:24.963Z,1008.21
2018-02-18T09:23:35.027Z,1008.23
2018-02-18T09:24:44.858Z,1008.17
2018-02-18T09:25:54.942Z,1008.23
2018-02-18T09:27:04.749Z,1008.23
2018-02-18T09:28:14.612Z,1008.27
2018-02-18T09:29:24.679Z,1008.24
2018-02-18T09:30:34.508Z,1008.25
2018-02-18T09:31:44.322Z,1008.23
2018-02-18T09:32:54.133Z,1008.24
2018-02-18T09:34:03.943Z,1008.27
2018-02-18T09:35:14.015Z,1008.22
2018-02-18T09:36:24.093Z,1008.25
2018-02-18T09:37:33.895Z,1008.26
2018-02-18T09:38:43.976Z,1008.25
2018-02-18T09:39:54.326Z,1008.24
2018-02-18T09:41:04.140Z,1008.28
2018-02-18T09:42:14.215Z,1008.29
2018-02-18T09:43:24.300Z,1008.34
2018-02-18T09:44:34.125Z,1008.35
2018-02-18T09:45:44.256Z,1008.28
2018-02-18T09:46:54.325Z,1008.28
2018-02-18T09:48:04.471Z,1008.28
2018-02-18T09:49:14.394Z,1008.33
2018-02-18T09:50:23.942Z,1008.39
2018-02-18T09:51:34.079Z,1008.43
2018-02-18T09:52:44.200Z,1008.47
2018-02-18T09:53:53.743Z,1008.5
2018-02-18T09:55:03.539Z,1008.5
2018-02-18T09:56:13.647Z,1008.52
2018-02-18T09:57:23.488Z,1008.63
2018-02-18T09:58:33.282Z,1008.63
2018-02-18T09:59:43.345Z,1008.64
2018-02-18T10:00:53.173Z,1008.67
2018-02-18T10:02:03.245Z,1008.7
2018-02-18T10:03:13.331Z,1008.69
2018-02-18T10:04:23.409Z,1008.65
2018-02-18T10:05:33.207Z,1008.71
2018-02-18T10:06:42.769Z,1008.67
2018-02-18T10:07:52.830Z,1008.67
2018-02-18T10:09:02.670Z,1008.72
2018-02-18T10:10:12.769Z,1008.67
2018-02-18T10:11:22.573Z,1008.68
2018-02-18T10:12:32.651Z,1008.77
2018-02-18T10:13:42.838Z,1008.71
2018-02-18T10:14:52.392Z,1008.72
2018-02-18T10:16:02.458Z,1008.68
2018-02-18T10:17:12.534Z,1008.72
2018-02-18T10:18:22.594Z,1008.76
2018-02-18T10:19:32.742Z,1008.79
2018-02-18T10:20:42.573Z,1008.8
2018-02-18T10:21:52.667Z,1008.73
2018-02-18T10:23:02.751Z,1008.71
2018-02-18T10:24:12.580Z,1008.67
2018-02-18T10:25:22.425Z,1008.78
2018-02-18T10:26:32.190Z,1008.78
2018-02-18T10:27:41.985Z,1008.7
2018-02-18T10:28:51.531Z,1008.73
2018-02-18T10:30:03.012Z,1008.72
2018-02-18T10:31:13.130Z,1008.7
2018-02-18T10:32:22.941Z,1008.74
2018-02-18T10:33:33.012Z,1008.69
2018-02-18T10:34:42.816Z,1008.7
2018-02-18T10:35:52.919Z,1008.73
2018-02-18T10:37:02.721Z,1008.79
2018-02-18T10:38:12.810Z,1008.72
2018-02-18T10:39:22.882Z,1008.81
2018-02-18T10:40:32.451Z,1008.77
2018-02-18T10:41:42.527Z,1008.76
2018-02-18T10:42:52.658Z,1008.77
2018-02-18T10:44:02.463Z,1008.82
2018-02-18T10:45:12.550Z,1008.82
2018-02-18T10:46:22.354Z,1008.82
2018-02-18T10:47:31.917Z,1008.84
2018-02-18T10:48:41.992Z,1008.89
2018-02-18T10:49:51.551Z,1008.86
2018-02-18T10:51:01.352Z,1008.88
2018-02-18T10:52:11.429Z,1008.9
2018-02-18T10:53:21.250Z,1008.86
2018-02-18T10:54:31.115Z,1008.88
2018-02-18T10:55:41.191Z,1008.89
2018-02-18T10:56:51.276Z,1008.87
2018-02-18T10:58:01.349Z,1008.84
2018-02-18T10:59:11.150Z,1008.94
2018-02-18T11:00:20.783Z,1008.88
2018-02-18T11:01:30.245Z,1008.91
2018-02-18T11:02:40.334Z,1008.93
2018-02-18T11:03:50.160Z,1008.91
2018-02-18T11:04:59.734Z,1008.93
2018-02-18T11:06:09.683Z,1008.91
2018-02-18T11:07:19.497Z,1008.89
2018-02-18T11:08:29.322Z,1008.88
2018-02-18T11:09:39.400Z,1008.84
2018-02-18T11:10:49.235Z,1008.86
2018-02-18T11:11:59.180Z,1008.87
2018-02-18T11:13:09.321Z,1008.88
2018-02-18T11:14:19.109Z,1008.87
2018-02-18T11:15:28.395Z,1008.88
2018-02-18T11:16:38.189Z,1008.89
2018-02-18T11:17:48.270Z,1008.87
2018-02-18T11:18:58.350Z,1008.88
2018-02-18T11:20:08.432Z,1008.9
2018-02-18T11:21:18.230Z,1008.9
2018-02-18T11:22:28.042Z,1008.86
2018-02-18T11:23:38.240Z,1008.88
2018-02-18T11:24:48.090Z,1008.87
2018-02-18T11:25:57.636Z,1008.88
2018-02-18T11:27:07.728Z,1008.85
2018-02-18T11:28:17.563Z,1008.83
2018-02-18T11:29:27.648Z,1008.9
2018-02-18T11:30:37.721Z,1008.83
2018-02-18T11:31:47.541Z,1008.86
2018-02-18T11:32:57.616Z,1008.79
2018-02-18T11:34:07.724Z,1008.79
2018-02-18T11:35:17.794Z,1008.72
2018-02-18T11:36:27.591Z,1008.69
2018-02-18T11:37:37.133Z,1008.71
2018-02-18T11:38:46.944Z,1008.67
2018-02-18T11:39:56.744Z,1008.68
2018-02-18T11:41:06.601Z,1008.65
2018-02-18T11:42:16.684Z,1008.63
2018-02-18T11:43:26.757Z,1008.61
2018-02-18T11:44:36.808Z,1008.57
2018-02-18T11:45:46.627Z,1008.56
2018-02-18T11:46:56.679Z,1008.57
2018-02-18T11:48:06.759Z,1008.58
2018-02-18T11:49:16.577Z,1008.59
2018-02-18T11:50:26.368Z,1008.56
2018-02-18T11:51:36.440Z,1008.6
2018-02-18T11:52:46.530Z,1008.54
2018-02-18T11:53:56.102Z,1008.56
2018-02-18T11:55:06.216Z,1008.56
2018-02-18T11:56:16.307Z,1008.58
2018-02-18T11:57:26.386Z,1008.62
2018-02-18T11:58:36.480Z,1008.57
2018-02-18T11:59:46.543Z,1008.58
2018-02-18T12:00:56.663Z,1008.59
2018-02-18T12:02:06.222Z,1008.6
2018-02-18T12:03:16.283Z,1008.55
2018-02-18T12:04:26.348Z,1008.6
2018-02-18T12:05:35.907Z,1008.59
2018-02-18T12:06:46.051Z,1008.59
2018-02-18T12:07:55.604Z,1008.6
2018-02-18T12:09:05.402Z,1008.6
2018-02-18T12:10:15.469Z,1008.56
2018-02-18T12:11:25.708Z,1008.59
2018-02-18T12:12:35.584Z,1008.57
2018-02-18T12:13:45.478Z,1008.61
2018-02-18T12:14:55.312Z,1008.58
2018-02-18T12:16:05.373Z,1008.58
2018-02-18T12:17:15.442Z,1008.59
2018-02-18T12:18:25.309Z,1008.59
2018-02-18T12:19:34.858Z,1008.59
2018-02-18T12:20:44.691Z,1008.6
2018-02-18T12:21:54.486Z,1008.62
2018-02-18T12:23:04.564Z,1008.6
2018-02-18T12:24:14.172Z,1008.64
2018-02-18T12:25:24.270Z,1008.6
2018-02-18T12:26:33.564Z,1008.62
2018-02-18T12:27:43.643Z,1008.64
2018-02-18T12:28:53.449Z,1008.68
2018-02-18T12:30:03.525Z,1008.65
2018-02-18T12:31:13.586Z,1008.7
2018-02-18T12:32:23.404Z,1008.7
2018-02-18T12:33:33.223Z,1008.74
2018-02-18T12:34:43.309Z,1008.72
2018-02-18T12:35:53.152Z,1008.71
2018-02-18T12:37:02.691Z,1008.73
2018-02-18T12:38:13.005Z,1008.71
2018-02-18T12:39:22.850Z,1008.67
2018-02-18T12:40:32.397Z,1008.74
2018-02-18T12:41:42.495Z,1008.69
2018-02-18T12:42:52.292Z,1008.69
2018-02-18T12:44:02.410Z,1008.75
2018-02-18T12:45:11.704Z,1008.7
2018-02-18T12:46:21.791Z,1008.73
2018-02-18T12:47:31.925Z,1008.74
2018-02-18T12:48:41.996Z,1008.75
2018-02-18T12:49:51.804Z,1008.77
2018-02-18T12:51:01.620Z,1008.71
2018-02-18T12:52:11.444Z,1008.72
2018-02-18T12:53:21.284Z,1008.77
2018-02-18T12:54:31.143Z,1008.74
2018-02-18T12:55:41.347Z,1008.74
2018-02-18T12:56:51.431Z,1008.75
2018-02-18T12:58:01.519Z,1008.77
2018-02-18T12:59:11.345Z,1008.77
2018-02-18T13:00:20.629Z,1008.76
2018-02-18T13:01:31.333Z,1008.74
2018-02-18T13:02:41.649Z,1008.75
2018-02-18T13:03:51.731Z,1008.75
2018-02-18T13:05:01.813Z,1008.77
2018-02-18T13:06:12.121Z,1008.67
2018-02-18T13:07:21.447Z,1008.72
2018-02-18T13:08:31.519Z,1008.74
2018-02-18T13:09:41.350Z,1008.73
2018-02-18T13:10:51.177Z,1008.69
2018-02-18T13:12:00.482Z,1008.72
2018-02-18T13:13:10.286Z,1008.73
2018-02-18T13:14:20.359Z,1008.72
2018-02-18T13:15:30.528Z,1008.68
2018-02-18T13:16:40.756Z,1008.67
2018-02-18T13:17:50.870Z,1008.67
2018-02-18T13:19:00.968Z,1008.73
2018-02-18T13:20:10.768Z,1008.7
2018-02-18T13:21:20.848Z,1008.74
2018-02-18T13:22:30.478Z,1008.68
2018-02-18T13:23:40.288Z,1008.69
2018-02-18T13:24:50.103Z,1008.64
2018-02-18T13:26:00.228Z,1008.73
2018-02-18T13:27:10.063Z,1008.75
2018-02-18T13:28:20.185Z,1008.72
2018-02-18T13:29:30.287Z,1008.78
2018-02-18T13:30:40.263Z,1008.74
2018-02-18T13:31:50.333Z,1008.75
2018-02-18T13:33:00.444Z,1008.72
2018-02-18T13:34:10.547Z,1008.72
2018-02-18T13:35:20.650Z,1008.74
2018-02-18T13:36:30.463Z,1008.69
2018-02-18T13:37:40.569Z,1008.76
2018-02-18T13:38:51.801Z,1008.73
2018-02-18T13:49:05.551Z,1008.78
2018-02-18T13:50:16.186Z,1008.76
2018-02-18T13:51:26.042Z,1008.81
2018-02-18T13:52:35.829Z,1008.82
2018-02-18T13:53:45.136Z,1008.8
2018-02-18T13:54:55.243Z,1008.79
2018-02-18T13:56:05.327Z,1008.78
2018-02-18T13:57:15.151Z,1008.77
2018-02-18T13:58:26.332Z,1008.82
2018-02-18T13:59:36.438Z,1008.78
2018-02-18T14:00:46.285Z,1008.83
2018-02-18T14:01:56.134Z,1008.78
2018-02-18T14:03:06.203Z,1008.92
2018-02-18T14:04:16.139Z,1008.89
2018-02-18T14:05:26.216Z,1008.9
2018-02-18T14:06:36.065Z,1008.9
2018-02-18T14:07:46.155Z,1008.9
2018-02-18T14:08:55.952Z,1008.91
2018-02-18T14:10:06.025Z,1008.91
2018-02-18T14:11:16.108Z,1008.88
2018-02-18T14:12:26.189Z,1008.89
2018-02-18T14:13:35.718Z,1008.91
2018-02-18T14:14:45.281Z,1008.84
2018-02-18T14:15:55.123Z,1008.85
2018-02-18T14:17:05.200Z,1008.95
2018-02-18T14:18:15.337Z,1008.93
2018-02-18T14:19:25.180Z,1008.89
2018-02-18T14:20:35.260Z,1008.94
2018-02-18T14:21:44.812Z,1008.97
2018-02-18T14:22:54.602Z,1008.99
2018-02-18T14:24:04.402Z,1009.03
2018-02-18T14:25:14.498Z,1009.02
2018-02-18T14:26:24.311Z,1009.04
2018-02-18T14:27:34.388Z,1009.03
2018-02-18T14:28:43.929Z,1009.01
2018-02-18T14:29:53.767Z,1009.02
2018-02-18T14:31:03.325Z,1009.03
2018-02-18T14:32:13.125Z,1009
2018-02-18T14:33:22.929Z,1009.03
2018-02-18T14:34:32.992Z,1009.05
2018-02-18T14:35:42.779Z,1009.03
2018-02-18T14:36:52.592Z,1009.03
2018-02-18T14:38:02.167Z,1008.97
2018-02-18T14:39:12.237Z,1008.97
2018-02-18T14:40:22.333Z,1008.93
2018-02-18T14:41:32.176Z,1008.97
2018-02-18T14:42:41.999Z,1008.91
2018-02-18T14:43:51.534Z,1008.94
2018-02-18T14:45:01.331Z,1008.89
2018-02-18T14:46:11.403Z,1008.89
2018-02-18T14:47:21.463Z,1008.9
2018-02-18T14:48:31.033Z,1008.88
2018-02-18T14:49:41.125Z,1008.85